Philadelphia, Pennsylvania
Traffic Map
Current Weather Conditions
Philadelphia, Pennsylvania
Clear
Clear
36°
Feels Like: 28°
Wind Chill: 28° Ceiling: Unl
Heat Index: 36° Visibility: 10mi
Dew Point: 21° Wind: 12mph
Humidity: 55% Direction: 360° (N)
Pressure: 30.18in Gusts: 0mph
Raw Report DataKPHL 192354Z 36010KT 10SM CLR 02/M06 A3018 RMK AO2 SLP217 T00221061 10056 20022 51026
Traffic Incident Summary
Active as of:
Severity:
Category:
InformationThere was an issue retrieving the traffic information for this location. Please try a different location or try again shortly.
Advertisements
Track Severe Weather on mobile